MMNL/NLD METAR and TAF weather

Enter ICAO airport designator
Station Type Date Time Source
MMNL METAR 2020/02/19 01:44 UTC NOAA

MMNL 190144Z 33015KT 7SM SCT040 BKN050 21/17 A3001 RMK 8/500


Station Type Date Time Source
MMNL Decoded METAR 2020/02/19 01:44 UTC NOAA

Nuevo Laredo International , Mexico (MMNL) 27-26N 099-34W
Feb 18, 2020 - 08:44 PM EST / 2020.02.19 0144 UTC
Wind: from the NNW (330 degrees) at 17 MPH (15 KT):0
Visibility: 7 mile(s):0
Sky conditions: mostly cloudy
Temperature: 69 F (21 C)
Dew Point: 62 F (17 C)
Relative Humidity: 77%
Pressure (altimeter): 30.01 in. Hg (1016 hPa)
ob: MMNL 190144Z 33015KT 7SM SCT040 BKN050 21/17 A3001 RMK 8/500
cycle: 1

Station Type Date Time Source
MMNL TAF 2020/02/19 06:05 UTC NOAA

TAF MMNL 190500Z 1906/2006 33010G20KT 6SM HZ BKN020 OVC050
BECMG 1909/1910 3SM -DZ BR OVC010
TEMPO 1912/1916 1SM -DZ BR BKN005 OVC010
FM191800 03015KT 5SM -RA BR BKN010 OVC030
FM192100 03012KT 5SM HZ BKN020 OVC050
FM200300 03010KT 5SM HZ BKN010 OVC020

Example: see airport list